sensor_id;sensor_type;location;lat;lon;timestamp;temperature;humidity
33741;DHT22;20065;48.380;10.892;2023-04-02T00:08:27;7.70;99.90
33741;DHT22;20065;48.380;10.892;2023-04-02T00:11:30;7.70;99.90
33741;DHT22;20065;48.380;10.892;2023-04-02T00:14:31;7.70;99.90
33741;DHT22;20065;48.380;10.892;2023-04-02T00:17:21;7.70;99.90
33741;DHT22;20065;48.380;10.892;2023-04-02T00:20:13;7.70;99.90
33741;DHT22;20065;48.380;10.892;2023-04-02T00:23:01;7.70;99.90
33741;DHT22;20065;48.380;10.892;2023-04-02T00:25:48;7.70;99.90
33741;DHT22;20065;48.380;10.892;2023-04-02T00:28:34;7.70;99.90
33741;DHT22;20065;48.380;10.892;2023-04-02T00:31:20;7.60;99.90
33741;DHT22;20065;48.380;10.892;2023-04-02T00:34:13;7.70;99.90
33741;DHT22;20065;48.380;10.892;2023-04-02T00:37:00;7.60;99.90
33741;DHT22;20065;48.380;10.892;2023-04-02T00:39:47;7.60;99.90
33741;DHT22;20065;48.380;10.892;2023-04-02T00:42:33;7.60;99.90
33741;DHT22;20065;48.380;10.892;2023-04-02T00:45:33;7.60;99.90
33741;DHT22;20065;48.380;10.892;2023-04-02T00:48:52;7.60;99.90
33741;DHT22;20065;48.380;10.892;2023-04-02T00:51:47;7.60;99.90
33741;DHT22;20065;48.380;10.892;2023-04-02T00:55:07;7.60;99.90
33741;DHT22;20065;48.380;10.892;2023-04-02T00:57:57;7.60;99.90
33741;DHT22;20065;48.380;10.892;2023-04-02T01:00:48;7.60;99.90
33741;DHT22;20065;48.380;10.892;2023-04-02T01:03:35;7.60;99.90
33741;DHT22;20065;48.380;10.892;2023-04-02T01:06:21;7.60;99.90
33741;DHT22;20065;48.380;10.892;2023-04-02T01:21:28;7.60;99.90
33741;DHT22;20065;48.380;10.892;2023-04-02T01:24:06;7.60;99.90
33741;DHT22;20065;48.380;10.892;2023-04-02T01:27:01;7.50;99.90
33741;DHT22;20065;48.380;10.892;2023-04-02T01:29:57;7.50;99.90
33741;DHT22;20065;48.380;10.892;2023-04-02T01:32:44;7.60;99.90
33741;DHT22;20065;48.380;10.892;2023-04-02T01:35:34;7.60;99.90
33741;DHT22;20065;48.380;10.892;2023-04-02T01:38:30;7.60;99.90
33741;DHT22;20065;48.380;10.892;2023-04-02T01:41:26;7.60;99.90
33741;DHT22;20065;48.380;10.892;2023-04-02T01:44:32;7.50;99.90
33741;DHT22;20065;48.380;10.892;2023-04-02T01:47:23;7.50;99.90
33741;DHT22;20065;48.380;10.892;2023-04-02T01:53:10;7.60;99.90
33741;DHT22;20065;48.380;10.892;2023-04-02T01:55:59;7.60;99.90
33741;DHT22;20065;48.380;10.892;2023-04-02T01:58:45;7.60;99.90
33741;DHT22;20065;48.380;10.892;2023-04-02T02:01:42;7.50;99.90
33741;DHT22;20065;48.380;10.892;2023-04-02T02:04:30;7.50;99.90
33741;DHT22;20065;48.380;10.892;2023-04-02T02:07:19;7.50;99.90
33741;DHT22;20065;48.380;10.892;2023-04-02T02:10:37;7.50;99.90
33741;DHT22;20065;48.380;10.892;2023-04-02T02:13:25;7.50;99.90
33741;DHT22;20065;48.380;10.892;2023-04-02T02:16:14;7.50;99.90
33741;DHT22;20065;48.380;10.892;2023-04-02T02:19:03;7.40;99.90
33741;DHT22;20065;48.380;10.892;2023-04-02T02:21:55;7.40;99.90
33741;DHT22;20065;48.380;10.892;2023-04-02T02:24:42;7.50;99.90
33741;DHT22;20065;48.380;10.892;2023-04-02T02:33:49;7.40;99.90
33741;DHT22;20065;48.380;10.892;2023-04-02T02:36:47;7.30;99.90
33741;DHT22;20065;48.380;10.892;2023-04-02T02:39:39;7.30;99.90
33741;DHT22;20065;48.380;10.892;2023-04-02T02:42:34;7.30;99.90
33741;DHT22;20065;48.380;10.892;2023-04-02T02:45:25;7.30;99.90
33741;DHT22;20065;48.380;10.892;2023-04-02T02:48:16;7.30;99.90
33741;DHT22;20065;48.380;10.892;2023-04-02T02:51:08;7.30;99.90
33741;DHT22;20065;48.380;10.892;2023-04-02T02:54:01;7.30;99.90
33741;DHT22;20065;48.380;10.892;2023-04-02T02:57:00;7.30;99.90
33741;DHT22;20065;48.380;10.892;2023-04-02T02:59:47;7.20;99.90
33741;DHT22;20065;48.380;10.892;2023-04-02T03:02:36;7.20;99.90
33741;DHT22;20065;48.380;10.892;2023-04-02T03:05:26;7.20;99.90
33741;DHT22;20065;48.380;10.892;2023-04-02T03:08:23;7.10;99.90
33741;DHT22;20065;48.380;10.892;2023-04-02T03:11:17;7.10;99.90
33741;DHT22;20065;48.380;10.892;2023-04-02T03:14:19;7.10;99.90
33741;DHT22;20065;48.380;10.892;2023-04-02T03:17:21;7.20;99.90
33741;DHT22;20065;48.380;10.892;2023-04-02T03:29:15;7.10;99.90
33741;DHT22;20065;48.380;10.892;2023-04-02T03:32:21;7.00;99.90
33741;DHT22;20065;48.380;10.892;2023-04-02T03:35:21;7.00;99.90
33741;DHT22;20065;48.380;10.892;2023-04-02T03:38:24;6.90;99.90
33741;DHT22;20065;48.380;10.892;2023-04-02T03:41:28;6.90;99.90
33741;DHT22;20065;48.380;10.892;2023-04-02T03:44:28;7.00;99.90
33741;DHT22;20065;48.380;10.892;2023-04-02T03:47:23;7.00;99.90
33741;DHT22;20065;48.380;10.892;2023-04-02T03:50:17;7.10;99.90
33741;DHT22;20065;48.380;10.892;2023-04-02T03:53:08;7.10;99.90
33741;DHT22;20065;48.380;10.892;2023-04-02T03:55:55;7.00;99.90
33741;DHT22;20065;48.380;10.892;2023-04-02T03:58:45;7.00;99.90
33741;DHT22;20065;48.380;10.892;2023-04-02T04:01:38;7.00;99.90
33741;DHT22;20065;48.380;10.892;2023-04-02T04:04:29;6.90;99.90
33741;DHT22;20065;48.380;10.892;2023-04-02T04:07:34;6.90;99.90
33741;DHT22;20065;48.380;10.892;2023-04-02T04:10:23;7.00;99.90
33741;DHT22;20065;48.380;10.892;2023-04-02T04:13:26;7.00;99.90
33741;DHT22;20065;48.380;10.892;2023-04-02T04:16:23;6.90;99.90
33741;DHT22;20065;48.380;10.892;2023-04-02T04:22:40;7.10;99.90
33741;DHT22;20065;48.380;10.892;2023-04-02T04:25:37;7.00;99.90
33741;DHT22;20065;48.380;10.892;2023-04-02T04:31:47;6.90;99.90
33741;DHT22;20065;48.380;10.892;2023-04-02T04:34:47;6.90;99.90
33741;DHT22;20065;48.380;10.892;2023-04-02T04:37:42;6.90;99.90
33741;DHT22;20065;48.380;10.892;2023-04-02T04:40:36;6.90;99.90
33741;DHT22;20065;48.380;10.892;2023-04-02T04:46:44;6.80;99.90
33741;DHT22;20065;48.380;10.892;2023-04-02T04:49:42;6.80;99.90
33741;DHT22;20065;48.380;10.892;2023-04-02T04:52:36;6.80;99.90
33741;DHT22;20065;48.380;10.892;2023-04-02T04:55:37;6.80;99.90
33741;DHT22;20065;48.380;10.892;2023-04-02T05:07:19;6.60;99.90
33741;DHT22;20065;48.380;10.892;2023-04-02T05:10:16;6.60;99.90
33741;DHT22;20065;48.380;10.892;2023-04-02T05:13:14;6.60;99.90
33741;DHT22;20065;48.380;10.892;2023-04-02T05:19:34;6.50;99.90
33741;DHT22;20065;48.380;10.892;2023-04-02T05:25:24;6.50;99.90
33741;DHT22;20065;48.380;10.892;2023-04-02T05:28:24;6.50;99.90
33741;DHT22;20065;48.380;10.892;2023-04-02T05:31:21;6.40;99.90
33741;DHT22;20065;48.380;10.892;2023-04-02T05:34:12;6.40;99.90
33741;DHT22;20065;48.380;10.892;2023-04-02T05:36:59;6.30;99.90
33741;DHT22;20065;48.380;10.892;2023-04-02T05:39:54;6.30;99.90
33741;DHT22;20065;48.380;10.892;2023-04-02T05:42:44;6.30;99.90
33741;DHT22;20065;48.380;10.892;2023-04-02T05:45:35;6.30;99.90
33741;DHT22;20065;48.380;10.892;2023-04-02T05:48:29;6.30;99.90
33741;DHT22;20065;48.380;10.892;2023-04-02T05:51:25;6.30;99.90
33741;DHT22;20065;48.380;10.892;2023-04-02T05:54:25;6.30;99.90
33741;DHT22;20065;48.380;10.892;2023-04-02T05:57:19;6.40;99.90
33741;DHT22;20065;48.380;10.892;2023-04-02T06:00:14;6.40;99.90
33741;DHT22;20065;48.380;10.892;2023-04-02T06:03:16;6.40;99.90
33741;DHT22;20065;48.380;10.892;2023-04-02T06:06:18;6.40;99.90
33741;DHT22;20065;48.380;10.892;2023-04-02T06:10:04;6.50;99.90
33741;DHT22;20065;48.380;10.892;2023-04-02T06:13:09;6.50;99.90
33741;DHT22;20065;48.380;10.892;2023-04-02T06:16:02;6.50;99.90
33741;DHT22;20065;48.380;10.892;2023-04-02T06:18:51;6.50;99.90
33741;DHT22;20065;48.380;10.892;2023-04-02T06:21:45;6.60;99.90
33741;DHT22;20065;48.380;10.892;2023-04-02T06:24:37;6.50;99.90
33741;DHT22;20065;48.380;10.892;2023-04-02T06:27:26;6.50;99.90
33741;DHT22;20065;48.380;10.892;2023-04-02T06:30:18;6.60;99.90
33741;DHT22;20065;48.380;10.892;2023-04-02T06:33:11;6.60;99.90
33741;DHT22;20065;48.380;10.892;2023-04-02T06:36:03;6.60;99.90
33741;DHT22;20065;48.380;10.892;2023-04-02T06:38:58;6.60;99.90
33741;DHT22;20065;48.380;10.892;2023-04-02T06:42:05;6.60;99.90
33741;DHT22;20065;48.380;10.892;2023-04-02T06:45:23;6.70;99.90
33741;DHT22;20065;48.380;10.892;2023-04-02T06:48:32;6.70;99.90
33741;DHT22;20065;48.380;10.892;2023-04-02T06:51:21;6.80;99.90
33741;DHT22;20065;48.380;10.892;2023-04-02T06:54:14;6.90;99.90
33741;DHT22;20065;48.380;10.892;2023-04-02T06:57:02;6.90;99.90
33741;DHT22;20065;48.380;10.892;2023-04-02T06:59:56;6.90;99.90
33741;DHT22;20065;48.380;10.892;2023-04-02T07:02:44;6.90;99.90
33741;DHT22;20065;48.380;10.892;2023-04-02T07:05:31;7.00;99.90
33741;DHT22;20065;48.380;10.892;2023-04-02T07:08:18;7.10;99.90
33741;DHT22;20065;48.380;10.892;2023-04-02T07:11:04;7.20;99.90
33741;DHT22;20065;48.380;10.892;2023-04-02T07:13:50;7.30;99.90
33741;DHT22;20065;48.380;10.892;2023-04-02T07:16:39;7.40;99.90
33741;DHT22;20065;48.380;10.892;2023-04-02T07:19:26;7.40;99.90
33741;DHT22;20065;48.380;10.892;2023-04-02T07:22:16;7.60;99.90
33741;DHT22;20065;48.380;10.892;2023-04-02T07:25:03;7.40;99.90
33741;DHT22;20065;48.380;10.892;2023-04-02T07:27:50;7.40;99.90
33741;DHT22;20065;48.380;10.892;2023-04-02T07:30:37;7.40;99.90
33741;DHT22;20065;48.380;10.892;2023-04-02T07:33:26;7.60;99.90
33741;DHT22;20065;48.380;10.892;2023-04-02T07:36:15;7.70;99.90
33741;DHT22;20065;48.380;10.892;2023-04-02T07:39:01;7.70;99.90
33741;DHT22;20065;48.380;10.892;2023-04-02T07:41:56;7.70;99.90
33741;DHT22;20065;48.380;10.892;2023-04-02T07:44:43;7.70;99.90
33741;DHT22;20065;48.380;10.892;2023-04-02T07:47:29;8.00;99.90
33741;DHT22;20065;48.380;10.892;2023-04-02T07:50:15;8.10;99.90
33741;DHT22;20065;48.380;10.892;2023-04-02T07:53:03;8.20;99.90
33741;DHT22;20065;48.380;10.892;2023-04-02T07:55:52;8.40;99.90
33741;DHT22;20065;48.380;10.892;2023-04-02T07:58:38;8.80;99.90
33741;DHT22;20065;48.380;10.892;2023-04-02T08:01:26;8.90;99.90
33741;DHT22;20065;48.380;10.892;2023-04-02T08:04:21;9.00;99.90
33741;DHT22;20065;48.380;10.892;2023-04-02T08:07:07;8.90;99.90
33741;DHT22;20065;48.380;10.892;2023-04-02T08:09:53;8.90;99.90
33741;DHT22;20065;48.380;10.892;2023-04-02T08:12:39;8.90;99.90
33741;DHT22;20065;48.380;10.892;2023-04-02T08:15:25;8.90;99.90
33741;DHT22;20065;48.380;10.892;2023-04-02T08:18:11;9.10;99.90
33741;DHT22;20065;48.380;10.892;2023-04-02T08:20:59;9.10;99.90
33741;DHT22;20065;48.380;10.892;2023-04-02T08:23:45;9.20;99.90
33741;DHT22;20065;48.380;10.892;2023-04-02T08:26:31;9.60;99.90
33741;DHT22;20065;48.380;10.892;2023-04-02T08:29:18;9.80;99.90
33741;DHT22;20065;48.380;10.892;2023-04-02T08:32:04;10.00;99.90
33741;DHT22;20065;48.380;10.892;2023-04-02T08:34:50;10.00;99.90
33741;DHT22;20065;48.380;10.892;2023-04-02T08:37:37;9.90;99.90
33741;DHT22;20065;48.380;10.892;2023-04-02T08:40:38;10.20;99.90
33741;DHT22;20065;48.380;10.892;2023-04-02T08:46:58;10.20;99.90
33741;DHT22;20065;48.380;10.892;2023-04-02T08:49:42;10.30;99.90
33741;DHT22;20065;48.380;10.892;2023-04-02T08:52:35;10.30;99.90
33741;DHT22;20065;48.380;10.892;2023-04-02T08:58:31;10.50;99.90
33741;DHT22;20065;48.380;10.892;2023-04-02T09:01:44;10.40;99.90
33741;DHT22;20065;48.380;10.892;2023-04-02T09:04:36;10.50;99.90
33741;DHT22;20065;48.380;10.892;2023-04-02T09:07:23;10.60;99.90
33741;DHT22;20065;48.380;10.892;2023-04-02T09:10:18;10.40;99.90
33741;DHT22;20065;48.380;10.892;2023-04-02T09:13:17;10.20;99.90
33741;DHT22;20065;48.380;10.892;2023-04-02T09:16:09;10.20;99.90
33741;DHT22;20065;48.380;10.892;2023-04-02T09:18:56;10.30;99.90
33741;DHT22;20065;48.380;10.892;2023-04-02T09:25:02;10.90;99.90
33741;DHT22;20065;48.380;10.892;2023-04-02T09:27:52;11.00;99.90
33741;DHT22;20065;48.380;10.892;2023-04-02T09:33:50;11.10;99.90
33741;DHT22;20065;48.380;10.892;2023-04-02T09:36:40;10.70;99.90
33741;DHT22;20065;48.380;10.892;2023-04-02T09:39:26;10.50;99.90
33741;DHT22;20065;48.380;10.892;2023-04-02T09:42:33;10.50;99.90
33741;DHT22;20065;48.380;10.892;2023-04-02T09:45:21;10.70;99.90
33741;DHT22;20065;48.380;10.892;2023-04-02T09:48:42;10.70;99.90
33741;DHT22;20065;48.380;10.892;2023-04-02T09:51:31;10.70;99.90
33741;DHT22;20065;48.380;10.892;2023-04-02T09:54:19;10.50;99.90
33741;DHT22;20065;48.380;10.892;2023-04-02T09:57:21;10.20;99.90
33741;DHT22;20065;48.380;10.892;2023-04-02T10:06:10;11.10;99.90
33741;DHT22;20065;48.380;10.892;2023-04-02T10:08:56;13.00;99.90
33741;DHT22;20065;48.380;10.892;2023-04-02T10:11:43;15.10;99.90
33741;DHT22;20065;48.380;10.892;2023-04-02T10:14:33;14.90;99.90
33741;DHT22;20065;48.380;10.892;2023-04-02T10:17:31;14.80;99.90
33741;DHT22;20065;48.380;10.892;2023-04-02T10:20:24;13.90;99.90
33741;DHT22;20065;48.380;10.892;2023-04-02T10:23:16;13.00;99.90
33741;DHT22;20065;48.380;10.892;2023-04-02T10:32:07;11.90;99.90
33741;DHT22;20065;48.380;10.892;2023-04-02T10:35:00;11.70;99.90
33741;DHT22;20065;48.380;10.892;2023-04-02T10:38:13;11.60;99.90
33741;DHT22;20065;48.380;10.892;2023-04-02T10:41:35;11.50;99.90
33741;DHT22;20065;48.380;10.892;2023-04-02T10:44:53;11.40;99.90
33741;DHT22;20065;48.380;10.892;2023-04-02T10:50:57;11.20;99.90
33741;DHT22;20065;48.380;10.892;2023-04-02T10:56:48;11.40;99.90
33741;DHT22;20065;48.380;10.892;2023-04-02T11:00:24;11.30;99.90
33741;DHT22;20065;48.380;10.892;2023-04-02T11:03:05;11.20;99.90
33741;DHT22;20065;48.380;10.892;2023-04-02T11:05:56;11.50;99.90
33741;DHT22;20065;48.380;10.892;2023-04-02T11:08:45;11.50;99.90
33741;DHT22;20065;48.380;10.892;2023-04-02T11:11:40;11.70;99.90
33741;DHT22;20065;48.380;10.892;2023-04-02T11:14:29;12.10;99.90
33741;DHT22;20065;48.380;10.892;2023-04-02T11:17:15;12.40;99.90
33741;DHT22;20065;48.380;10.892;2023-04-02T11:24:16;12.60;99.90
33741;DHT22;20065;48.380;10.892;2023-04-02T11:27:13;12.90;99.90
33741;DHT22;20065;48.380;10.892;2023-04-02T11:30:21;13.20;99.90
33741;DHT22;20065;48.380;10.892;2023-04-02T11:49:32;12.20;99.90
33741;DHT22;20065;48.380;10.892;2023-04-02T11:52:51;12.00;99.90
33741;DHT22;20065;48.380;10.892;2023-04-02T11:55:37;11.90;99.90
33741;DHT22;20065;48.380;10.892;2023-04-02T12:10:20;13.10;99.90
33741;DHT22;20065;48.380;10.892;2023-04-02T12:13:25;14.10;99.90
33741;DHT22;20065;48.380;10.892;2023-04-02T12:16:23;15.00;99.90
33741;DHT22;20065;48.380;10.892;2023-04-02T12:19:14;15.60;99.90
33741;DHT22;20065;48.380;10.892;2023-04-02T12:22:01;15.40;99.90
33741;DHT22;20065;48.380;10.892;2023-04-02T12:24:48;15.10;99.90
33741;DHT22;20065;48.380;10.892;2023-04-02T12:27:35;15.10;99.90
33741;DHT22;20065;48.380;10.892;2023-04-02T12:30:23;15.40;99.90
33741;DHT22;20065;48.380;10.892;2023-04-02T12:38:59;14.30;99.90
33741;DHT22;20065;48.380;10.892;2023-04-02T12:41:47;13.90;99.90
33741;DHT22;20065;48.380;10.892;2023-04-02T12:44:33;13.30;99.90
33741;DHT22;20065;48.380;10.892;2023-04-02T12:47:19;12.70;99.90
33741;DHT22;20065;48.380;10.892;2023-04-02T12:50:11;11.90;99.90
33741;DHT22;20065;48.380;10.892;2023-04-02T12:52:59;10.90;99.90
33741;DHT22;20065;48.380;10.892;2023-04-02T12:55:50;10.30;99.90
33741;DHT22;20065;48.380;10.892;2023-04-02T12:58:41;10.10;99.90
33741;DHT22;20065;48.380;10.892;2023-04-02T13:01:30;10.00;99.90
33741;DHT22;20065;48.380;10.892;2023-04-02T13:04:16;9.90;99.90
33741;DHT22;20065;48.380;10.892;2023-04-02T13:07:03;9.90;99.90
33741;DHT22;20065;48.380;10.892;2023-04-02T13:10:01;10.10;99.90
33741;DHT22;20065;48.380;10.892;2023-04-02T13:12:58;10.40;99.90
33741;DHT22;20065;48.380;10.892;2023-04-02T13:16:00;10.60;99.90
33741;DHT22;20065;48.380;10.892;2023-04-02T13:18:50;10.80;99.90
33741;DHT22;20065;48.380;10.892;2023-04-02T13:21:36;11.00;99.90
33741;DHT22;20065;48.380;10.892;2023-04-02T13:24:31;11.40;99.90
33741;DHT22;20065;48.380;10.892;2023-04-02T13:27:18;11.70;99.90
33741;DHT22;20065;48.380;10.892;2023-04-02T13:30:19;12.00;99.90
33741;DHT22;20065;48.380;10.892;2023-04-02T13:33:06;12.00;99.90
33741;DHT22;20065;48.380;10.892;2023-04-02T13:35:53;11.40;99.90
33741;DHT22;20065;48.380;10.892;2023-04-02T13:38:40;11.50;99.90
33741;DHT22;20065;48.380;10.892;2023-04-02T13:41:33;11.50;99.90
33741;DHT22;20065;48.380;10.892;2023-04-02T13:44:23;11.50;99.90
33741;DHT22;20065;48.380;10.892;2023-04-02T13:47:13;11.70;99.90
33741;DHT22;20065;48.380;10.892;2023-04-02T13:49:59;11.90;99.90
33741;DHT22;20065;48.380;10.892;2023-04-02T13:52:49;11.80;99.90
33741;DHT22;20065;48.380;10.892;2023-04-02T13:55:38;11.90;99.90
33741;DHT22;20065;48.380;10.892;2023-04-02T13:58:25;12.30;99.90
33741;DHT22;20065;48.380;10.892;2023-04-02T14:01:12;12.80;99.90
33741;DHT22;20065;48.380;10.892;2023-04-02T14:03:59;12.90;99.90
33741;DHT22;20065;48.380;10.892;2023-04-02T14:10:05;13.30;99.90
33741;DHT22;20065;48.380;10.892;2023-04-02T14:21:49;10.90;99.90
33741;DHT22;20065;48.380;10.892;2023-04-02T14:30:44;10.20;99.90
33741;DHT22;20065;48.380;10.892;2023-04-02T14:33:59;10.20;99.90
33741;DHT22;20065;48.380;10.892;2023-04-02T14:46:01;10.10;99.90
33741;DHT22;20065;48.380;10.892;2023-04-02T14:55:09;10.00;99.90
33741;DHT22;20065;48.380;10.892;2023-04-02T14:58:01;10.00;99.90
33741;DHT22;20065;48.380;10.892;2023-04-02T15:01:13;10.00;99.90
33741;DHT22;20065;48.380;10.892;2023-04-02T15:04:16;10.00;99.90
33741;DHT22;20065;48.380;10.892;2023-04-02T15:07:27;9.90;99.90
33741;DHT22;20065;48.380;10.892;2023-04-02T15:13:20;9.80;99.90
33741;DHT22;20065;48.380;10.892;2023-04-02T15:16:16;9.80;99.90
33741;DHT22;20065;48.380;10.892;2023-04-02T15:19:13;9.90;99.90
33741;DHT22;20065;48.380;10.892;2023-04-02T15:22:34;10.00;99.90
33741;DHT22;20065;48.380;10.892;2023-04-02T15:25:54;10.10;99.90
33741;DHT22;20065;48.380;10.892;2023-04-02T15:32:07;10.30;99.90
33741;DHT22;20065;48.380;10.892;2023-04-02T15:44:14;10.10;99.90
33741;DHT22;20065;48.380;10.892;2023-04-02T15:50:07;10.30;99.90
33741;DHT22;20065;48.380;10.892;2023-04-02T16:11:13;9.80;99.90
33741;DHT22;20065;48.380;10.892;2023-04-02T16:17:42;9.80;99.90
33741;DHT22;20065;48.380;10.892;2023-04-02T16:20:38;9.70;99.90
33741;DHT22;20065;48.380;10.892;2023-04-02T16:23:36;9.80;99.90
33741;DHT22;20065;48.380;10.892;2023-04-02T16:36:09;9.30;99.90
33741;DHT22;20065;48.380;10.892;2023-04-02T16:58:40;8.80;99.90
33741;DHT22;20065;48.380;10.892;2023-04-02T17:01:37;8.70;99.90
33741;DHT22;20065;48.380;10.892;2023-04-02T17:07:59;8.70;99.90
33741;DHT22;20065;48.380;10.892;2023-04-02T17:13:54;8.60;99.90
33741;DHT22;20065;48.380;10.892;2023-04-02T17:16:56;8.50;99.90
33741;DHT22;20065;48.380;10.892;2023-04-02T17:19:44;8.50;99.90
33741;DHT22;20065;48.380;10.892;2023-04-02T17:22:30;8.50;99.90
33741;DHT22;20065;48.380;10.892;2023-04-02T17:25:25;8.30;99.90
33741;DHT22;20065;48.380;10.892;2023-04-02T17:28:15;8.20;99.90
33741;DHT22;20065;48.380;10.892;2023-04-02T17:31:20;8.10;99.90
33741;DHT22;20065;48.380;10.892;2023-04-02T17:34:16;8.10;99.90
33741;DHT22;20065;48.380;10.892;2023-04-02T17:37:36;8.10;99.90
33741;DHT22;20065;48.380;10.892;2023-04-02T17:43:45;8.00;99.90
33741;DHT22;20065;48.380;10.892;2023-04-02T18:06:00;7.20;99.90
33741;DHT22;20065;48.380;10.892;2023-04-02T18:12:10;7.10;99.90
33741;DHT22;20065;48.380;10.892;2023-04-02T18:21:46;7.10;99.90
33741;DHT22;20065;48.380;10.892;2023-04-02T18:39:35;6.90;99.90
33741;DHT22;20065;48.380;10.892;2023-04-02T18:43:04;6.80;99.90
33741;DHT22;20065;48.380;10.892;2023-04-02T18:51:39;6.60;99.90
33741;DHT22;20065;48.380;10.892;2023-04-02T18:54:40;6.60;99.90
33741;DHT22;20065;48.380;10.892;2023-04-02T18:57:34;6.70;99.90
33741;DHT22;20065;48.380;10.892;2023-04-02T19:03:37;6.80;99.90
33741;DHT22;20065;48.380;10.892;2023-04-02T19:06:47;6.80;99.90
33741;DHT22;20065;48.380;10.892;2023-04-02T19:09:37;6.90;99.90
33741;DHT22;20065;48.380;10.892;2023-04-02T19:12:27;6.80;99.90
33741;DHT22;20065;48.380;10.892;2023-04-02T19:15:17;6.80;99.90
33741;DHT22;20065;48.380;10.892;2023-04-02T19:18:18;6.80;99.90
33741;DHT22;20065;48.380;10.892;2023-04-02T19:21:23;6.80;99.90
33741;DHT22;20065;48.380;10.892;2023-04-02T19:30:33;6.80;99.90
33741;DHT22;20065;48.380;10.892;2023-04-02T19:39:43;6.80;99.90
33741;DHT22;20065;48.380;10.892;2023-04-02T19:45:36;6.70;99.90
33741;DHT22;20065;48.380;10.892;2023-04-02T19:48:25;6.70;99.90
33741;DHT22;20065;48.380;10.892;2023-04-02T19:51:12;6.60;99.90
33741;DHT22;20065;48.380;10.892;2023-04-02T19:53:59;6.50;99.90
33741;DHT22;20065;48.380;10.892;2023-04-02T19:56:46;6.40;99.90
33741;DHT22;20065;48.380;10.892;2023-04-02T19:59:33;6.50;99.90
33741;DHT22;20065;48.380;10.892;2023-04-02T20:02:19;6.50;99.90
33741;DHT22;20065;48.380;10.892;2023-04-02T20:05:06;6.40;99.90
33741;DHT22;20065;48.380;10.892;2023-04-02T20:07:53;6.50;99.90
33741;DHT22;20065;48.380;10.892;2023-04-02T20:10:39;6.60;99.90
33741;DHT22;20065;48.380;10.892;2023-04-02T20:13:26;6.60;99.90
33741;DHT22;20065;48.380;10.892;2023-04-02T20:16:12;6.60;99.90
33741;DHT22;20065;48.380;10.892;2023-04-02T20:19:33;6.50;99.90
33741;DHT22;20065;48.380;10.892;2023-04-02T20:22:20;6.30;99.90
33741;DHT22;20065;48.380;10.892;2023-04-02T20:25:09;6.20;99.90
33741;DHT22;20065;48.380;10.892;2023-04-02T20:27:56;6.10;99.90
33741;DHT22;20065;48.380;10.892;2023-04-02T20:30:42;6.10;99.90
33741;DHT22;20065;48.380;10.892;2023-04-02T20:33:30;5.90;99.90
33741;DHT22;20065;48.380;10.892;2023-04-02T20:36:16;5.90;99.90
33741;DHT22;20065;48.380;10.892;2023-04-02T20:39:02;5.80;99.90
33741;DHT22;20065;48.380;10.892;2023-04-02T20:41:51;5.70;99.90
33741;DHT22;20065;48.380;10.892;2023-04-02T20:44:38;5.60;99.90
33741;DHT22;20065;48.380;10.892;2023-04-02T20:47:24;5.60;99.90
33741;DHT22;20065;48.380;10.892;2023-04-02T20:50:10;5.40;99.90
33741;DHT22;20065;48.380;10.892;2023-04-02T20:52:57;5.40;99.90
33741;DHT22;20065;48.380;10.892;2023-04-02T20:55:45;5.40;99.90
33741;DHT22;20065;48.380;10.892;2023-04-02T20:58:32;5.40;99.90
33741;DHT22;20065;48.380;10.892;2023-04-02T21:01:23;5.40;99.90
33741;DHT22;20065;48.380;10.892;2023-04-02T21:04:10;5.40;99.90
33741;DHT22;20065;48.380;10.892;2023-04-02T21:06:56;5.40;99.90
33741;DHT22;20065;48.380;10.892;2023-04-02T21:09:42;5.40;99.90
33741;DHT22;20065;48.380;10.892;2023-04-02T21:12:30;5.40;99.90
33741;DHT22;20065;48.380;10.892;2023-04-02T21:15:16;5.40;99.90
33741;DHT22;20065;48.380;10.892;2023-04-02T21:18:02;5.30;99.90
33741;DHT22;20065;48.380;10.892;2023-04-02T21:20:59;5.20;99.90
33741;DHT22;20065;48.380;10.892;2023-04-02T21:23:46;5.10;99.90
33741;DHT22;20065;48.380;10.892;2023-04-02T21:26:35;5.00;99.90
33741;DHT22;20065;48.380;10.892;2023-04-02T21:29:21;5.00;99.90
33741;DHT22;20065;48.380;10.892;2023-04-02T21:32:08;5.00;99.90
33741;DHT22;20065;48.380;10.892;2023-04-02T21:34:55;4.80;99.90
33741;DHT22;20065;48.380;10.892;2023-04-02T21:37:44;4.80;99.90
33741;DHT22;20065;48.380;10.892;2023-04-02T21:40:31;4.70;99.90
33741;DHT22;20065;48.380;10.892;2023-04-02T21:43:17;4.70;99.90
33741;DHT22;20065;48.380;10.892;2023-04-02T21:46:04;4.70;99.90
33741;DHT22;20065;48.380;10.892;2023-04-02T21:48:56;4.70;99.90
33741;DHT22;20065;48.380;10.892;2023-04-02T21:51:44;4.60;99.90
33741;DHT22;20065;48.380;10.892;2023-04-02T21:54:37;4.50;99.90
33741;DHT22;20065;48.380;10.892;2023-04-02T21:57:23;4.40;99.90
33741;DHT22;20065;48.380;10.892;2023-04-02T22:00:10;4.40;99.90
33741;DHT22;20065;48.380;10.892;2023-04-02T22:02:58;4.40;99.90
33741;DHT22;20065;48.380;10.892;2023-04-02T22:05:44;4.40;99.90
33741;DHT22;20065;48.380;10.892;2023-04-02T22:08:31;4.30;99.90
33741;DHT22;20065;48.380;10.892;2023-04-02T22:11:22;4.30;99.90
33741;DHT22;20065;48.380;10.892;2023-04-02T22:14:09;4.20;99.90
33741;DHT22;20065;48.380;10.892;2023-04-02T22:16:56;4.20;99.90
33741;DHT22;20065;48.380;10.892;2023-04-02T22:19:43;4.20;99.90
33741;DHT22;20065;48.380;10.892;2023-04-02T22:22:31;4.20;99.90
33741;DHT22;20065;48.380;10.892;2023-04-02T22:25:17;4.20;99.90
33741;DHT22;20065;48.380;10.892;2023-04-02T22:28:06;4.20;99.90
33741;DHT22;20065;48.380;10.892;2023-04-02T22:30:54;4.20;99.90
33741;DHT22;20065;48.380;10.892;2023-04-02T22:33:41;4.10;99.90
33741;DHT22;20065;48.380;10.892;2023-04-02T22:36:28;4.10;99.90
33741;DHT22;20065;48.380;10.892;2023-04-02T22:39:14;4.10;99.90
33741;DHT22;20065;48.380;10.892;2023-04-02T22:42:01;4.10;99.90
33741;DHT22;20065;48.380;10.892;2023-04-02T22:44:47;4.20;99.90
33741;DHT22;20065;48.380;10.892;2023-04-02T22:47:34;4.20;99.90
33741;DHT22;20065;48.380;10.892;2023-04-02T22:50:20;4.30;99.90
33741;DHT22;20065;48.380;10.892;2023-04-02T22:53:06;4.40;99.90
33741;DHT22;20065;48.380;10.892;2023-04-02T22:55:53;4.50;99.90
33741;DHT22;20065;48.380;10.892;2023-04-02T22:58:39;4.60;99.90
33741;DHT22;20065;48.380;10.892;2023-04-02T23:01:29;4.50;99.90
33741;DHT22;20065;48.380;10.892;2023-04-02T23:04:19;4.60;99.90
33741;DHT22;20065;48.380;10.892;2023-04-02T23:07:05;4.50;99.90
33741;DHT22;20065;48.380;10.892;2023-04-02T23:09:52;4.50;99.90
33741;DHT22;20065;48.380;10.892;2023-04-02T23:12:38;4.50;99.90
33741;DHT22;20065;48.380;10.892;2023-04-02T23:15:24;4.50;99.90
33741;DHT22;20065;48.380;10.892;2023-04-02T23:18:10;4.60;99.90
33741;DHT22;20065;48.380;10.892;2023-04-02T23:20:57;4.60;99.90